sensor_id;sensor_type;location;lat;lon;timestamp;P1;durP1;ratioP1;P2;durP2;ratioP2
71665;SDS011;59503;53.486;10.196;2022-09-09T00:00:40;191.07;;;32.05;;
71665;SDS011;59503;53.486;10.196;2022-09-09T00:03:14;207.57;;;30.08;;
71665;SDS011;59503;53.486;10.196;2022-09-09T00:05:56;145.80;;;24.90;;
71665;SDS011;59503;53.486;10.196;2022-09-09T00:08:53;176.87;;;26.20;;
71665;SDS011;59503;53.486;10.196;2022-09-09T00:11:43;144.80;;;25.33;;
71665;SDS011;59503;53.486;10.196;2022-09-09T00:14:23;231.73;;;30.95;;
71665;SDS011;59503;53.486;10.196;2022-09-09T00:17:00;320.40;;;32.47;;
71665;SDS011;59503;53.486;10.196;2022-09-09T00:27:01;304.50;;;33.80;;
71665;SDS011;59503;53.486;10.196;2022-09-09T00:29:44;248.68;;;31.90;;
71665;SDS011;59503;53.486;10.196;2022-09-09T00:32:20;126.07;;;25.90;;
71665;SDS011;59503;53.486;10.196;2022-09-09T00:35:33;97.50;;;22.53;;
71665;SDS011;59503;53.486;10.196;2022-09-09T00:37:44;129.95;;;25.33;;
71665;SDS011;59503;53.486;10.196;2022-09-09T00:40:30;90.90;;;22.13;;
71665;SDS011;59503;53.486;10.196;2022-09-09T00:48:10;103.30;;;23.50;;
71665;SDS011;59503;53.486;10.196;2022-09-09T00:50:59;176.60;;;27.95;;
71665;SDS011;59503;53.486;10.196;2022-09-09T00:56:25;167.15;;;27.02;;
71665;SDS011;59503;53.486;10.196;2022-09-09T00:59:14;137.57;;;26.33;;
71665;SDS011;59503;53.486;10.196;2022-09-09T01:01:49;337.57;;;31.93;;
71665;SDS011;59503;53.486;10.196;2022-09-09T01:04:21;213.90;;;30.98;;
71665;SDS011;59503;53.486;10.196;2022-09-09T01:06:58;213.10;;;32.78;;
71665;SDS011;59503;53.486;10.196;2022-09-09T01:09:56;140.88;;;26.35;;
71665;SDS011;59503;53.486;10.196;2022-09-09T01:12:44;143.15;;;24.15;;
71665;SDS011;59503;53.486;10.196;2022-09-09T01:15:13;209.17;;;28.53;;
71665;SDS011;59503;53.486;10.196;2022-09-09T01:20:14;117.97;;;24.60;;
71665;SDS011;59503;53.486;10.196;2022-09-09T01:28:25;91.95;;;20.35;;
71665;SDS011;59503;53.486;10.196;2022-09-09T01:30:52;89.80;;;20.30;;
71665;SDS011;59503;53.486;10.196;2022-09-09T01:33:19;99.80;;;22.30;;
71665;SDS011;59503;53.486;10.196;2022-09-09T01:38:16;73.97;;;18.70;;
71665;SDS011;59503;53.486;10.196;2022-09-09T01:40:42;183.57;;;27.23;;
71665;SDS011;59503;53.486;10.196;2022-09-09T01:43:08;90.93;;;20.52;;
71665;SDS011;59503;53.486;10.196;2022-09-09T01:45:34;84.57;;;19.52;;
71665;SDS011;59503;53.486;10.196;2022-09-09T01:48:00;312.43;;;32.53;;
71665;SDS011;59503;53.486;10.196;2022-09-09T01:50:27;317.13;;;32.42;;
71665;SDS011;59503;53.486;10.196;2022-09-09T01:52:54;288.08;;;32.80;;
71665;SDS011;59503;53.486;10.196;2022-09-09T01:55:33;104.05;;;22.33;;
71665;SDS011;59503;53.486;10.196;2022-09-09T02:03:52;290.10;;;30.10;;
71665;SDS011;59503;53.486;10.196;2022-09-09T02:06:41;163.73;;;25.52;;
71665;SDS011;59503;53.486;10.196;2022-09-09T02:09:10;391.90;;;34.08;;
71665;SDS011;59503;53.486;10.196;2022-09-09T02:11:38;190.40;;;25.67;;
71665;SDS011;59503;53.486;10.196;2022-09-09T02:14:05;87.60;;;19.92;;
71665;SDS011;59503;53.486;10.196;2022-09-09T02:16:39;118.30;;;23.33;;
71665;SDS011;59503;53.486;10.196;2022-09-09T02:21:33;173.95;;;25.75;;
71665;SDS011;59503;53.486;10.196;2022-09-09T02:24:04;79.00;;;18.60;;
71665;SDS011;59503;53.486;10.196;2022-09-09T02:26:34;125.55;;;22.27;;
71665;SDS011;59503;53.486;10.196;2022-09-09T02:29:06;266.13;;;28.38;;
71665;SDS011;59503;53.486;10.196;2022-09-09T02:31:37;94.28;;;20.30;;
71665;SDS011;59503;53.486;10.196;2022-09-09T02:34:06;108.97;;;21.38;;
71665;SDS011;59503;53.486;10.196;2022-09-09T02:36:36;67.03;;;17.80;;
71665;SDS011;59503;53.486;10.196;2022-09-09T02:39:05;142.10;;;23.92;;
71665;SDS011;59503;53.486;10.196;2022-09-09T02:41:34;149.60;;;23.48;;
71665;SDS011;59503;53.486;10.196;2022-09-09T02:44:05;170.70;;;23.50;;
71665;SDS011;59503;53.486;10.196;2022-09-09T02:52:22;159.15;;;24.50;;
71665;SDS011;59503;53.486;10.196;2022-09-09T02:54:59;118.53;;;22.77;;
71665;SDS011;59503;53.486;10.196;2022-09-09T02:57:33;146.48;;;24.42;;
71665;SDS011;59503;53.486;10.196;2022-09-09T03:00:00;96.28;;;21.83;;
71665;SDS011;59503;53.486;10.196;2022-09-09T03:02:26;187.03;;;23.80;;
71665;SDS011;59503;53.486;10.196;2022-09-09T03:04:52;224.57;;;27.15;;
71665;SDS011;59503;53.486;10.196;2022-09-09T03:07:18;314.30;;;32.13;;
71665;SDS011;59503;53.486;10.196;2022-09-09T03:09:44;124.38;;;24.25;;
71665;SDS011;59503;53.486;10.196;2022-09-09T03:12:10;218.73;;;27.58;;
71665;SDS011;59503;53.486;10.196;2022-09-09T03:14:39;139.38;;;24.17;;
71665;SDS011;59503;53.486;10.196;2022-09-09T03:17:05;238.93;;;26.70;;
71665;SDS011;59503;53.486;10.196;2022-09-09T03:19:30;127.93;;;23.77;;
71665;SDS011;59503;53.486;10.196;2022-09-09T03:21:56;134.97;;;23.80;;
71665;SDS011;59503;53.486;10.196;2022-09-09T03:24:23;127.82;;;24.73;;
71665;SDS011;59503;53.486;10.196;2022-09-09T03:26:49;214.10;;;28.60;;
71665;SDS011;59503;53.486;10.196;2022-09-09T03:29:15;196.38;;;26.40;;
71665;SDS011;59503;53.486;10.196;2022-09-09T03:31:42;161.33;;;27.23;;
71665;SDS011;59503;53.486;10.196;2022-09-09T03:34:08;182.20;;;25.45;;
71665;SDS011;59503;53.486;10.196;2022-09-09T03:36:33;158.90;;;26.37;;
71665;SDS011;59503;53.486;10.196;2022-09-09T03:38:59;102.67;;;24.50;;
71665;SDS011;59503;53.486;10.196;2022-09-09T03:41:25;96.32;;;23.52;;
71665;SDS011;59503;53.486;10.196;2022-09-09T03:43:51;86.30;;;20.20;;
71665;SDS011;59503;53.486;10.196;2022-09-09T03:46:18;140.70;;;24.63;;
71665;SDS011;59503;53.486;10.196;2022-09-09T03:48:44;90.43;;;22.35;;
71665;SDS011;59503;53.486;10.196;2022-09-09T03:51:11;183.65;;;26.67;;
71665;SDS011;59503;53.486;10.196;2022-09-09T03:53:36;99.87;;;23.03;;
71665;SDS011;59503;53.486;10.196;2022-09-09T03:56:03;216.45;;;26.58;;
71665;SDS011;59503;53.486;10.196;2022-09-09T03:58:32;127.38;;;23.25;;
71665;SDS011;59503;53.486;10.196;2022-09-09T04:01:03;98.60;;;23.00;;
71665;SDS011;59503;53.486;10.196;2022-09-09T04:03:35;136.93;;;23.20;;
71665;SDS011;59503;53.486;10.196;2022-09-09T04:06:02;151.82;;;23.58;;
71665;SDS011;59503;53.486;10.196;2022-09-09T04:08:29;138.13;;;23.15;;
71665;SDS011;59503;53.486;10.196;2022-09-09T04:10:59;119.40;;;23.97;;
71665;SDS011;59503;53.486;10.196;2022-09-09T04:13:27;214.70;;;26.33;;
71665;SDS011;59503;53.486;10.196;2022-09-09T04:15:57;144.90;;;24.35;;
71665;SDS011;59503;53.486;10.196;2022-09-09T04:18:24;131.65;;;24.92;;
71665;SDS011;59503;53.486;10.196;2022-09-09T04:20:51;199.57;;;27.67;;
71665;SDS011;59503;53.486;10.196;2022-09-09T04:23:18;158.00;;;26.27;;
71665;SDS011;59503;53.486;10.196;2022-09-09T04:25:45;161.40;;;25.90;;
71665;SDS011;59503;53.486;10.196;2022-09-09T04:28:12;132.98;;;25.40;;
71665;SDS011;59503;53.486;10.196;2022-09-09T04:30:42;116.65;;;24.42;;
71665;SDS011;59503;53.486;10.196;2022-09-09T04:33:08;113.35;;;24.00;;
71665;SDS011;59503;53.486;10.196;2022-09-09T04:35:37;125.97;;;24.90;;
71665;SDS011;59503;53.486;10.196;2022-09-09T04:38:04;116.30;;;25.25;;
71665;SDS011;59503;53.486;10.196;2022-09-09T04:40:33;103.50;;;23.38;;
71665;SDS011;59503;53.486;10.196;2022-09-09T04:42:58;107.03;;;25.30;;
71665;SDS011;59503;53.486;10.196;2022-09-09T04:45:26;119.45;;;25.85;;
71665;SDS011;59503;53.486;10.196;2022-09-09T04:47:52;110.85;;;23.88;;
71665;SDS011;59503;53.486;10.196;2022-09-09T04:50:18;113.30;;;25.40;;
71665;SDS011;59503;53.486;10.196;2022-09-09T04:52:44;100.60;;;23.20;;
71665;SDS011;59503;53.486;10.196;2022-09-09T04:55:11;107.57;;;23.83;;
71665;SDS011;59503;53.486;10.196;2022-09-09T04:57:38;106.83;;;24.33;;
71665;SDS011;59503;53.486;10.196;2022-09-09T05:00:04;93.13;;;22.08;;
71665;SDS011;59503;53.486;10.196;2022-09-09T05:02:30;99.40;;;23.42;;
71665;SDS011;59503;53.486;10.196;2022-09-09T05:04:56;83.05;;;20.77;;
71665;SDS011;59503;53.486;10.196;2022-09-09T05:07:21;84.67;;;21.13;;
71665;SDS011;59503;53.486;10.196;2022-09-09T05:09:47;82.15;;;23.13;;
71665;SDS011;59503;53.486;10.196;2022-09-09T05:12:14;79.40;;;21.30;;
71665;SDS011;59503;53.486;10.196;2022-09-09T05:14:41;74.20;;;20.20;;
71665;SDS011;59503;53.486;10.196;2022-09-09T05:17:07;81.47;;;22.42;;
71665;SDS011;59503;53.486;10.196;2022-09-09T05:19:33;80.23;;;21.27;;
71665;SDS011;59503;53.486;10.196;2022-09-09T05:21:58;68.55;;;20.77;;
71665;SDS011;59503;53.486;10.196;2022-09-09T05:24:26;80.50;;;20.87;;
71665;SDS011;59503;53.486;10.196;2022-09-09T05:26:51;61.85;;;17.67;;
71665;SDS011;59503;53.486;10.196;2022-09-09T05:29:17;73.77;;;19.97;;
71665;SDS011;59503;53.486;10.196;2022-09-09T05:31:44;70.10;;;19.20;;
71665;SDS011;59503;53.486;10.196;2022-09-09T05:34:10;67.95;;;19.58;;
71665;SDS011;59503;53.486;10.196;2022-09-09T05:36:36;71.83;;;18.80;;
71665;SDS011;59503;53.486;10.196;2022-09-09T05:39:02;72.95;;;20.08;;
71665;SDS011;59503;53.486;10.196;2022-09-09T05:41:28;55.03;;;17.15;;
71665;SDS011;59503;53.486;10.196;2022-09-09T05:43:54;57.97;;;17.75;;
71665;SDS011;59503;53.486;10.196;2022-09-09T05:46:20;56.07;;;17.07;;
71665;SDS011;59503;53.486;10.196;2022-09-09T05:48:47;48.63;;;16.67;;
71665;SDS011;59503;53.486;10.196;2022-09-09T05:51:21;46.30;;;16.20;;
71665;SDS011;59503;53.486;10.196;2022-09-09T05:53:49;52.43;;;16.70;;
71665;SDS011;59503;53.486;10.196;2022-09-09T05:56:16;41.00;;;14.45;;
71665;SDS011;59503;53.486;10.196;2022-09-09T05:58:43;44.97;;;16.63;;
71665;SDS011;59503;53.486;10.196;2022-09-09T06:01:22;39.20;;;14.73;;
71665;SDS011;59503;53.486;10.196;2022-09-09T06:03:59;39.72;;;15.13;;
71665;SDS011;59503;53.486;10.196;2022-09-09T06:06:31;41.07;;;14.90;;
71665;SDS011;59503;53.486;10.196;2022-09-09T06:09:02;38.33;;;13.95;;
71665;SDS011;59503;53.486;10.196;2022-09-09T06:11:29;29.40;;;13.37;;
71665;SDS011;59503;53.486;10.196;2022-09-09T06:13:56;34.90;;;13.93;;
71665;SDS011;59503;53.486;10.196;2022-09-09T06:16:23;31.55;;;13.30;;
71665;SDS011;59503;53.486;10.196;2022-09-09T06:18:49;27.27;;;12.50;;
71665;SDS011;59503;53.486;10.196;2022-09-09T06:23:46;28.88;;;12.43;;
71665;SDS011;59503;53.486;10.196;2022-09-09T06:26:17;25.67;;;11.82;;
71665;SDS011;59503;53.486;10.196;2022-09-09T06:28:47;23.85;;;11.48;;
71665;SDS011;59503;53.486;10.196;2022-09-09T06:31:15;25.85;;;12.55;;
71665;SDS011;59503;53.486;10.196;2022-09-09T06:33:42;25.33;;;11.63;;
71665;SDS011;59503;53.486;10.196;2022-09-09T06:36:13;24.90;;;11.40;;
71665;SDS011;59503;53.486;10.196;2022-09-09T06:38:40;20.90;;;10.45;;
71665;SDS011;59503;53.486;10.196;2022-09-09T06:41:09;20.48;;;10.15;;
71665;SDS011;59503;53.486;10.196;2022-09-09T06:43:36;23.15;;;9.75;;
71665;SDS011;59503;53.486;10.196;2022-09-09T06:46:12;22.93;;;10.13;;
71665;SDS011;59503;53.486;10.196;2022-09-09T06:48:48;23.20;;;10.30;;
71665;SDS011;59503;53.486;10.196;2022-09-09T06:51:18;21.35;;;9.85;;
71665;SDS011;59503;53.486;10.196;2022-09-09T06:53:55;19.35;;;9.43;;
71665;SDS011;59503;53.486;10.196;2022-09-09T06:56:23;15.10;;;8.73;;
71665;SDS011;59503;53.486;10.196;2022-09-09T06:58:53;12.83;;;7.57;;
71665;SDS011;59503;53.486;10.196;2022-09-09T07:01:24;22.38;;;10.30;;
71665;SDS011;59503;53.486;10.196;2022-09-09T07:03:52;14.13;;;8.38;;
71665;SDS011;59503;53.486;10.196;2022-09-09T07:06:23;14.13;;;8.32;;
71665;SDS011;59503;53.486;10.196;2022-09-09T07:08:50;18.45;;;7.10;;
71665;SDS011;59503;53.486;10.196;2022-09-09T07:11:17;12.90;;;6.17;;
71665;SDS011;59503;53.486;10.196;2022-09-09T07:13:44;9.38;;;6.50;;
71665;SDS011;59503;53.486;10.196;2022-09-09T07:16:11;16.92;;;7.53;;
71665;SDS011;59503;53.486;10.196;2022-09-09T07:18:39;11.05;;;5.90;;
71665;SDS011;59503;53.486;10.196;2022-09-09T07:21:05;9.07;;;5.35;;
71665;SDS011;59503;53.486;10.196;2022-09-09T07:23:31;7.63;;;5.50;;
71665;SDS011;59503;53.486;10.196;2022-09-09T07:25:58;9.70;;;5.47;;
71665;SDS011;59503;53.486;10.196;2022-09-09T07:28:23;10.43;;;5.15;;
71665;SDS011;59503;53.486;10.196;2022-09-09T07:30:56;6.35;;;4.63;;
71665;SDS011;59503;53.486;10.196;2022-09-09T07:33:23;8.73;;;5.35;;
71665;SDS011;59503;53.486;10.196;2022-09-09T07:35:49;9.87;;;3.97;;
71665;SDS011;59503;53.486;10.196;2022-09-09T07:38:15;6.22;;;3.55;;
71665;SDS011;59503;53.486;10.196;2022-09-09T07:40:41;8.40;;;4.03;;
71665;SDS011;59503;53.486;10.196;2022-09-09T07:43:07;5.87;;;3.67;;
71665;SDS011;59503;53.486;10.196;2022-09-09T07:45:33;8.85;;;3.65;;
71665;SDS011;59503;53.486;10.196;2022-09-09T07:48:00;5.57;;;2.90;;
71665;SDS011;59503;53.486;10.196;2022-09-09T07:50:25;3.60;;;2.80;;
71665;SDS011;59503;53.486;10.196;2022-09-09T07:52:51;4.17;;;2.80;;
71665;SDS011;59503;53.486;10.196;2022-09-09T07:55:18;5.28;;;2.78;;
71665;SDS011;59503;53.486;10.196;2022-09-09T07:57:44;4.47;;;2.20;;
71665;SDS011;59503;53.486;10.196;2022-09-09T08:00:10;3.63;;;2.70;;
71665;SDS011;59503;53.486;10.196;2022-09-09T08:02:36;7.55;;;2.78;;
71665;SDS011;59503;53.486;10.196;2022-09-09T08:05:01;3.53;;;1.97;;
71665;SDS011;59503;53.486;10.196;2022-09-09T08:07:27;4.15;;;2.13;;
71665;SDS011;59503;53.486;10.196;2022-09-09T08:09:53;5.30;;;2.40;;
71665;SDS011;59503;53.486;10.196;2022-09-09T08:12:21;7.13;;;2.60;;
71665;SDS011;59503;53.486;10.196;2022-09-09T08:14:46;9.00;;;2.67;;
71665;SDS011;59503;53.486;10.196;2022-09-09T08:17:13;5.82;;;2.60;;
71665;SDS011;59503;53.486;10.196;2022-09-09T08:19:39;4.53;;;2.33;;
71665;SDS011;59503;53.486;10.196;2022-09-09T08:22:04;6.50;;;2.67;;
71665;SDS011;59503;53.486;10.196;2022-09-09T08:24:31;4.27;;;2.27;;
71665;SDS011;59503;53.486;10.196;2022-09-09T08:26:56;5.05;;;2.20;;
71665;SDS011;59503;53.486;10.196;2022-09-09T08:29:22;3.47;;;1.93;;
71665;SDS011;59503;53.486;10.196;2022-09-09T08:31:54;4.47;;;2.25;;
71665;SDS011;59503;53.486;10.196;2022-09-09T08:34:22;6.70;;;2.10;;
71665;SDS011;59503;53.486;10.196;2022-09-09T08:36:49;4.60;;;2.20;;
71665;SDS011;59503;53.486;10.196;2022-09-09T08:39:17;7.53;;;2.20;;
71665;SDS011;59503;53.486;10.196;2022-09-09T08:54:52;4.72;;;2.20;;
71665;SDS011;59503;53.486;10.196;2022-09-09T08:57:25;6.28;;;2.03;;
71665;SDS011;59503;53.486;10.196;2022-09-09T08:59:52;2.80;;;1.80;;
71665;SDS011;59503;53.486;10.196;2022-09-09T09:02:24;4.53;;;1.88;;
71665;SDS011;59503;53.486;10.196;2022-09-09T09:05:00;3.95;;;1.85;;
71665;SDS011;59503;53.486;10.196;2022-09-09T09:08:01;4.78;;;1.38;;
71665;SDS011;59503;53.486;10.196;2022-09-09T09:10:44;3.65;;;1.60;;
71665;SDS011;59503;53.486;10.196;2022-09-09T09:13:23;3.60;;;1.67;;
71665;SDS011;59503;53.486;10.196;2022-09-09T09:16:13;5.38;;;2.00;;
71665;SDS011;59503;53.486;10.196;2022-09-09T09:18:57;4.25;;;1.63;;
71665;SDS011;59503;53.486;10.196;2022-09-09T09:24:20;4.72;;;1.85;;
71665;SDS011;59503;53.486;10.196;2022-09-09T09:26:52;4.23;;;1.60;;
71665;SDS011;59503;53.486;10.196;2022-09-09T09:29:18;8.35;;;2.00;;
71665;SDS011;59503;53.486;10.196;2022-09-09T09:31:56;3.95;;;1.52;;
71665;SDS011;59503;53.486;10.196;2022-09-09T09:34:26;4.45;;;1.60;;
71665;SDS011;59503;53.486;10.196;2022-09-09T09:36:57;3.30;;;1.60;;
71665;SDS011;59503;53.486;10.196;2022-09-09T09:39:31;4.35;;;1.50;;
71665;SDS011;59503;53.486;10.196;2022-09-09T09:42:09;3.17;;;2.10;;
71665;SDS011;59503;53.486;10.196;2022-09-09T09:44:39;4.47;;;1.53;;
71665;SDS011;59503;53.486;10.196;2022-09-09T09:47:06;3.78;;;1.63;;
71665;SDS011;59503;53.486;10.196;2022-09-09T09:49:32;5.68;;;1.85;;
71665;SDS011;59503;53.486;10.196;2022-09-09T09:52:02;2.45;;;1.70;;
71665;SDS011;59503;53.486;10.196;2022-09-09T09:54:28;3.95;;;1.33;;
71665;SDS011;59503;53.486;10.196;2022-09-09T09:56:56;7.93;;;1.83;;
71665;SDS011;59503;53.486;10.196;2022-09-09T09:59:33;5.75;;;1.60;;
71665;SDS011;59503;53.486;10.196;2022-09-09T10:02:20;4.88;;;1.58;;
71665;SDS011;59503;53.486;10.196;2022-09-09T10:04:59;2.35;;;1.40;;
71665;SDS011;59503;53.486;10.196;2022-09-09T10:07:26;5.30;;;1.67;;
71665;SDS011;59503;53.486;10.196;2022-09-09T10:09:55;2.70;;;1.43;;
71665;SDS011;59503;53.486;10.196;2022-09-09T10:20:32;4.28;;;2.25;;
71665;SDS011;59503;53.486;10.196;2022-09-09T10:23:06;2.55;;;1.63;;
71665;SDS011;59503;53.486;10.196;2022-09-09T10:28:42;2.53;;;1.40;;
71665;SDS011;59503;53.486;10.196;2022-09-09T10:31:18;6.97;;;1.77;;
71665;SDS011;59503;53.486;10.196;2022-09-09T10:36:31;8.65;;;1.73;;
71665;SDS011;59503;53.486;10.196;2022-09-09T10:38:58;4.67;;;1.40;;
71665;SDS011;59503;53.486;10.196;2022-09-09T10:44:19;3.67;;;1.40;;
71665;SDS011;59503;53.486;10.196;2022-09-09T10:55:15;5.85;;;1.98;;
71665;SDS011;59503;53.486;10.196;2022-09-09T10:57:31;3.08;;;1.40;;
71665;SDS011;59503;53.486;10.196;2022-09-09T11:00:05;4.25;;;1.83;;
71665;SDS011;59503;53.486;10.196;2022-09-09T11:02:39;5.70;;;1.97;;
71665;SDS011;59503;53.486;10.196;2022-09-09T11:05:14;3.85;;;1.50;;
71665;SDS011;59503;53.486;10.196;2022-09-09T11:07:49;5.40;;;1.73;;
71665;SDS011;59503;53.486;10.196;2022-09-09T11:13:22;7.43;;;2.13;;
71665;SDS011;59503;53.486;10.196;2022-09-09T11:18:46;3.25;;;1.40;;
71665;SDS011;59503;53.486;10.196;2022-09-09T11:21:15;6.07;;;1.40;;
71665;SDS011;59503;53.486;10.196;2022-09-09T11:23:54;5.70;;;1.50;;
71665;SDS011;59503;53.486;10.196;2022-09-09T11:26:29;3.50;;;1.15;;
71665;SDS011;59503;53.486;10.196;2022-09-09T11:40:20;2.45;;;1.10;;
71665;SDS011;59503;53.486;10.196;2022-09-09T11:43:00;2.67;;;0.87;;
71665;SDS011;59503;53.486;10.196;2022-09-09T11:45:27;3.15;;;1.23;;
71665;SDS011;59503;53.486;10.196;2022-09-09T11:47:58;4.25;;;1.30;;
71665;SDS011;59503;53.486;10.196;2022-09-09T11:52:50;3.57;;;1.60;;
71665;SDS011;59503;53.486;10.196;2022-09-09T11:55:29;5.88;;;1.55;;
71665;SDS011;59503;53.486;10.196;2022-09-09T11:58:01;4.63;;;1.65;;
71665;SDS011;59503;53.486;10.196;2022-09-09T12:00:30;10.93;;;1.80;;
71665;SDS011;59503;53.486;10.196;2022-09-09T12:03:03;5.53;;;1.80;;
71665;SDS011;59503;53.486;10.196;2022-09-09T12:05:38;5.05;;;1.75;;
71665;SDS011;59503;53.486;10.196;2022-09-09T12:08:11;6.97;;;2.45;;
71665;SDS011;59503;53.486;10.196;2022-09-09T12:10:54;7.10;;;2.50;;
71665;SDS011;59503;53.486;10.196;2022-09-09T12:13:23;5.00;;;2.10;;
71665;SDS011;59503;53.486;10.196;2022-09-09T12:15:54;4.22;;;2.33;;
71665;SDS011;59503;53.486;10.196;2022-09-09T12:18:35;3.72;;;1.83;;
71665;SDS011;59503;53.486;10.196;2022-09-09T12:21:21;5.70;;;2.10;;
71665;SDS011;59503;53.486;10.196;2022-09-09T12:23:59;4.13;;;1.90;;
71665;SDS011;59503;53.486;10.196;2022-09-09T12:32:02;6.65;;;2.22;;
71665;SDS011;59503;53.486;10.196;2022-09-09T12:34:40;4.05;;;2.17;;
71665;SDS011;59503;53.486;10.196;2022-09-09T12:39:55;5.33;;;2.53;;
71665;SDS011;59503;53.486;10.196;2022-09-09T12:42:26;5.28;;;2.05;;
71665;SDS011;59503;53.486;10.196;2022-09-09T12:47:24;7.10;;;2.17;;
71665;SDS011;59503;53.486;10.196;2022-09-09T12:50:03;5.10;;;2.33;;
71665;SDS011;59503;53.486;10.196;2022-09-09T12:52:33;5.67;;;2.67;;
71665;SDS011;59503;53.486;10.196;2022-09-09T12:55:03;3.22;;;2.47;;
71665;SDS011;59503;53.486;10.196;2022-09-09T12:57:33;5.20;;;2.97;;
71665;SDS011;59503;53.486;10.196;2022-09-09T13:00:07;5.40;;;2.20;;
71665;SDS011;59503;53.486;10.196;2022-09-09T13:02:46;4.30;;;2.40;;
71665;SDS011;59503;53.486;10.196;2022-09-09T13:05:14;5.37;;;1.50;;
71665;SDS011;59503;53.486;10.196;2022-09-09T13:07:42;2.20;;;1.60;;
71665;SDS011;59503;53.486;10.196;2022-09-09T13:10:11;7.32;;;1.55;;
71665;SDS011;59503;53.486;10.196;2022-09-09T13:12:39;3.85;;;1.20;;
71665;SDS011;59503;53.486;10.196;2022-09-09T13:15:12;2.03;;;1.52;;
71665;SDS011;59503;53.486;10.196;2022-09-09T13:17:48;3.63;;;1.37;;
71665;SDS011;59503;53.486;10.196;2022-09-09T13:20:18;2.67;;;1.55;;
71665;SDS011;59503;53.486;10.196;2022-09-09T13:22:47;3.10;;;1.63;;
71665;SDS011;59503;53.486;10.196;2022-09-09T13:28:03;3.42;;;1.63;;
71665;SDS011;59503;53.486;10.196;2022-09-09T13:30:31;7.60;;;1.83;;
71665;SDS011;59503;53.486;10.196;2022-09-09T13:41:33;6.38;;;2.35;;
71665;SDS011;59503;53.486;10.196;2022-09-09T13:44:01;3.37;;;2.20;;
71665;SDS011;59503;53.486;10.196;2022-09-09T13:46:33;6.00;;;2.17;;
71665;SDS011;59503;53.486;10.196;2022-09-09T13:51:36;6.00;;;2.67;;
71665;SDS011;59503;53.486;10.196;2022-09-09T13:54:06;5.78;;;2.58;;
71665;SDS011;59503;53.486;10.196;2022-09-09T13:56:35;5.07;;;3.00;;
71665;SDS011;59503;53.486;10.196;2022-09-09T13:59:02;9.10;;;2.83;;
71665;SDS011;59503;53.486;10.196;2022-09-09T14:01:28;6.30;;;3.13;;
71665;SDS011;59503;53.486;10.196;2022-09-09T14:03:55;8.00;;;3.63;;
71665;SDS011;59503;53.486;10.196;2022-09-09T14:06:20;7.28;;;3.20;;
71665;SDS011;59503;53.486;10.196;2022-09-09T14:08:49;11.83;;;3.33;;
71665;SDS011;59503;53.486;10.196;2022-09-09T14:11:15;6.80;;;3.55;;
71665;SDS011;59503;53.486;10.196;2022-09-09T14:13:41;10.48;;;3.75;;
71665;SDS011;59503;53.486;10.196;2022-09-09T14:16:07;7.93;;;3.60;;
71665;SDS011;59503;53.486;10.196;2022-09-09T14:18:32;7.30;;;3.40;;
71665;SDS011;59503;53.486;10.196;2022-09-09T14:20:59;9.63;;;3.75;;
71665;SDS011;59503;53.486;10.196;2022-09-09T14:23:24;11.23;;;4.40;;
71665;SDS011;59503;53.486;10.196;2022-09-09T14:25:50;7.40;;;4.37;;
71665;SDS011;59503;53.486;10.196;2022-09-09T14:28:17;11.15;;;4.75;;
71665;SDS011;59503;53.486;10.196;2022-09-09T14:30:42;9.45;;;4.00;;
71665;SDS011;59503;53.486;10.196;2022-09-09T14:33:13;14.07;;;4.63;;
71665;SDS011;59503;53.486;10.196;2022-09-09T14:35:40;10.03;;;4.50;;
71665;SDS011;59503;53.486;10.196;2022-09-09T14:38:07;5.72;;;3.95;;
71665;SDS011;59503;53.486;10.196;2022-09-09T14:40:38;7.93;;;3.90;;
71665;SDS011;59503;53.486;10.196;2022-09-09T14:43:04;7.40;;;4.15;;
71665;SDS011;59503;53.486;10.196;2022-09-09T14:45:30;5.32;;;4.18;;
71665;SDS011;59503;53.486;10.196;2022-09-09T14:47:56;7.67;;;3.83;;
71665;SDS011;59503;53.486;10.196;2022-09-09T14:50:23;9.10;;;4.60;;
71665;SDS011;59503;53.486;10.196;2022-09-09T14:52:49;7.47;;;3.83;;
71665;SDS011;59503;53.486;10.196;2022-09-09T14:55:17;5.95;;;3.40;;
71665;SDS011;59503;53.486;10.196;2022-09-09T14:57:43;8.10;;;3.90;;
71665;SDS011;59503;53.486;10.196;2022-09-09T15:00:09;4.43;;;2.87;;
71665;SDS011;59503;53.486;10.196;2022-09-09T15:02:36;3.72;;;2.30;;
71665;SDS011;59503;53.486;10.196;2022-09-09T15:05:02;5.03;;;2.13;;
71665;SDS011;59503;53.486;10.196;2022-09-09T15:07:28;8.80;;;2.35;;
71665;SDS011;59503;53.486;10.196;2022-09-09T15:09:53;3.23;;;1.93;;
71665;SDS011;59503;53.486;10.196;2022-09-09T15:12:19;4.65;;;2.35;;
71665;SDS011;59503;53.486;10.196;2022-09-09T15:14:46;5.50;;;2.10;;
71665;SDS011;59503;53.486;10.196;2022-09-09T15:17:12;3.08;;;2.10;;
71665;SDS011;59503;53.486;10.196;2022-09-09T15:19:38;8.05;;;3.13;;
71665;SDS011;59503;53.486;10.196;2022-09-09T15:22:04;6.57;;;3.13;;
71665;SDS011;59503;53.486;10.196;2022-09-09T15:24:31;9.43;;;3.78;;
71665;SDS011;59503;53.486;10.196;2022-09-09T15:26:56;8.55;;;4.80;;
71665;SDS011;59503;53.486;10.196;2022-09-09T15:29:22;8.87;;;4.50;;
71665;SDS011;59503;53.486;10.196;2022-09-09T15:31:48;9.77;;;4.20;;
71665;SDS011;59503;53.486;10.196;2022-09-09T15:34:13;10.47;;;4.77;;
71665;SDS011;59503;53.486;10.196;2022-09-09T15:36:40;7.50;;;3.97;;
71665;SDS011;59503;53.486;10.196;2022-09-09T15:39:10;12.23;;;5.38;;
71665;SDS011;59503;53.486;10.196;2022-09-09T15:41:38;9.02;;;4.90;;
71665;SDS011;59503;53.486;10.196;2022-09-09T15:44:04;7.60;;;4.90;;
71665;SDS011;59503;53.486;10.196;2022-09-09T15:46:34;10.05;;;4.80;;
71665;SDS011;59503;53.486;10.196;2022-09-09T15:49:05;10.82;;;4.82;;
71665;SDS011;59503;53.486;10.196;2022-09-09T15:51:38;6.68;;;4.40;;
71665;SDS011;59503;53.486;10.196;2022-09-09T15:54:06;9.20;;;4.05;;
71665;SDS011;59503;53.486;10.196;2022-09-09T15:56:32;9.00;;;4.50;;
71665;SDS011;59503;53.486;10.196;2022-09-09T15:59:00;8.55;;;4.82;;
71665;SDS011;59503;53.486;10.196;2022-09-09T16:01:28;5.75;;;3.97;;
71665;SDS011;59503;53.486;10.196;2022-09-09T16:03:55;12.23;;;5.00;;
71665;SDS011;59503;53.486;10.196;2022-09-09T16:06:22;8.53;;;4.73;;
71665;SDS011;59503;53.486;10.196;2022-09-09T16:08:49;12.32;;;4.90;;
71665;SDS011;59503;53.486;10.196;2022-09-09T16:11:19;8.80;;;4.85;;
71665;SDS011;59503;53.486;10.196;2022-09-09T16:13:53;7.15;;;4.38;;
71665;SDS011;59503;53.486;10.196;2022-09-09T16:16:21;6.57;;;4.45;;
71665;SDS011;59503;53.486;10.196;2022-09-09T16:18:53;6.97;;;4.27;;
71665;SDS011;59503;53.486;10.196;2022-09-09T16:21:24;10.55;;;4.10;;
71665;SDS011;59503;53.486;10.196;2022-09-09T16:24:01;6.47;;;3.20;;
71665;SDS011;59503;53.486;10.196;2022-09-09T16:26:28;10.38;;;4.10;;
71665;SDS011;59503;53.486;10.196;2022-09-09T16:28:56;10.45;;;4.13;;
71665;SDS011;59503;53.486;10.196;2022-09-09T16:31:24;8.30;;;3.80;;
71665;SDS011;59503;53.486;10.196;2022-09-09T16:33:50;6.22;;;3.70;;
71665;SDS011;59503;53.486;10.196;2022-09-09T16:36:20;10.48;;;4.13;;
71665;SDS011;59503;53.486;10.196;2022-09-09T16:38:53;6.53;;;3.80;;
71665;SDS011;59503;53.486;10.196;2022-09-09T16:41:20;5.57;;;3.35;;